Time;durP1;ratioP1;P1;durP2;ratioP2;P2;SDS_P1;SDS_P2;PMS_P1;PMS_P2;Temp;Humidity;BMP_temperature;BMP_pressure;BME280_temperature;BME280_humidity;BME280_pressure;Samples;Min_cycle;Max_cycle;Signal;HPM_P1;HPM_P2
2024/03/31 00:00:54;;;;;;;1.77;0.77;;;8.50;99.90;;;;;;4796985;29;20526;-82
2024/03/31 00:03:20;;;;;;;2.10;1.00;;;8.50;99.90;;;;;;4816423;29;20114;-81
2024/03/31 00:05:47;;;;;;;1.50;0.70;;;8.60;99.90;;;;;;4819170;29;20129;-79
2024/03/31 00:08:12;;;;;;;1.80;0.80;;;8.70;99.90;;;;;;4846379;29;20581;-79
2024/03/31 00:10:38;;;;;;;1.90;0.88;;;8.70;99.90;;;;;;4813927;29;20042;-79
2024/03/31 00:13:05;;;;;;;2.08;1.08;;;8.80;99.90;;;;;;4828833;29;20057;-79
2024/03/31 00:15:30;;;;;;;2.17;0.98;;;8.80;99.90;;;;;;4799234;29;20072;-77
2024/03/31 00:17:56;;;;;;;2.70;1.00;;;8.80;99.90;;;;;;4829247;29;20056;-78
2024/03/31 00:20:23;;;;;;;2.78;1.13;;;8.80;99.90;;;;;;4805097;29;20038;-88
2024/03/31 00:22:49;;;;;;;1.85;0.95;;;8.90;99.90;;;;;;4828914;29;20102;-83
2024/03/31 00:25:16;;;;;;;2.53;0.98;;;9.00;99.90;;;;;;4829523;29;20132;-80
2024/03/31 00:27:42;;;;;;;2.22;0.98;;;9.00;99.90;;;;;;4815617;29;20054;-81
2024/03/31 00:30:08;;;;;;;2.63;1.17;;;9.00;99.90;;;;;;4799891;29;20438;-79
2024/03/31 00:32:34;;;;;;;3.30;1.42;;;9.00;99.90;;;;;;4814059;29;20109;-80
2024/03/31 00:35:00;;;;;;;2.70;1.23;;;9.00;99.90;;;;;;4829260;29;20494;-81
2024/03/31 00:37:29;;;;;;;3.03;1.20;;;9.00;99.90;;;;;;4813960;29;20498;-81
2024/03/31 00:39:56;;;;;;;3.78;1.80;;;9.10;99.90;;;;;;4819645;29;20086;-81
2024/03/31 00:42:22;;;;;;;3.95;1.80;;;9.10;99.90;;;;;;4813636;29;20061;-81
2024/03/31 00:44:48;;;;;;;5.35;2.85;;;9.10;99.90;;;;;;4813671;29;20101;-80
2024/03/31 00:47:14;;;;;;;4.70;2.30;;;9.20;99.90;;;;;;4816137;29;20057;-81
2024/03/31 00:49:40;;;;;;;6.40;2.85;;;9.20;99.90;;;;;;4805550;29;20052;-81
2024/03/31 00:52:06;;;;;;;5.72;3.40;;;9.20;99.90;;;;;;4812372;29;20069;-81
2024/03/31 00:54:32;;;;;;;4.80;2.65;;;9.20;99.90;;;;;;4821566;29;20053;-80
2024/03/31 00:56:58;;;;;;;5.93;3.05;;;9.20;99.90;;;;;;4836459;29;20053;-80
2024/03/31 00:59:25;;;;;;;5.07;2.67;;;9.30;99.90;;;;;;4827416;29;20042;-80
2024/03/31 01:01:50;;;;;;;5.88;3.40;;;9.30;99.90;;;;;;4813366;29;20512;-80
2024/03/31 01:04:16;;;;;;;6.82;3.53;;;9.30;99.90;;;;;;4807736;29;20053;-80
2024/03/31 01:06:42;;;;;;;6.25;3.28;;;9.30;99.90;;;;;;4807539;29;20053;-83
2024/03/31 01:09:08;;;;;;;5.75;2.63;;;9.30;99.90;;;;;;4837983;29;20053;-81
2024/03/31 01:11:36;;;;;;;7.45;4.18;;;9.30;99.90;;;;;;4825093;29;20046;-81
2024/03/31 01:14:03;;;;;;;6.70;3.50;;;9.30;99.90;;;;;;4818493;29;20137;-81
2024/03/31 01:16:29;;;;;;;7.25;3.65;;;9.40;99.90;;;;;;4825392;29;20418;-80
2024/03/31 01:18:55;;;;;;;6.90;3.67;;;9.40;99.90;;;;;;4813270;29;20045;-81
2024/03/31 01:21:26;;;;;;;6.15;3.42;;;9.30;99.90;;;;;;4813427;29;20042;-81
2024/03/31 01:23:55;;;;;;;7.50;3.83;;;9.40;99.90;;;;;;4846467;29;20052;-81
2024/03/31 01:26:21;;;;;;;6.18;3.38;;;9.40;99.90;;;;;;4816508;29;20056;-82
2024/03/31 01:28:47;;;;;;;5.95;2.88;;;9.40;99.90;;;;;;4831449;29;20057;-83
2024/03/31 01:31:13;;;;;;;6.45;2.83;;;9.40;99.90;;;;;;4824418;29;20140;-81
2024/03/31 01:33:43;;;;;;;7.28;3.72;;;9.40;99.90;;;;;;4831531;29;20181;-79
2024/03/31 01:36:10;;;;;;;6.05;3.20;;;9.40;99.90;;;;;;4816304;29;20049;-79
2024/03/31 01:38:36;;;;;;;6.13;3.28;;;9.40;99.90;;;;;;4831446;29;20049;-79
2024/03/31 01:41:02;;;;;;;5.93;3.00;;;9.40;99.90;;;;;;4802555;29;20045;-79
2024/03/31 01:43:28;;;;;;;6.95;3.97;;;9.40;99.90;;;;;;4836929;29;20049;-79
2024/03/31 01:45:55;;;;;;;7.05;3.53;;;9.40;99.90;;;;;;4816105;29;20431;-79
2024/03/31 01:48:21;;;;;;;7.05;3.17;;;9.40;99.90;;;;;;4830883;29;20057;-79
2024/03/31 01:50:47;;;;;;;5.97;2.92;;;9.40;99.90;;;;;;4837171;29;20050;-79
2024/03/31 01:53:13;;;;;;;5.65;2.95;;;9.30;99.90;;;;;;4816607;29;20518;-79
2024/03/31 01:55:42;;;;;;;4.78;2.40;;;9.30;99.90;;;;;;4846738;29;20049;-79
2024/03/31 01:58:08;;;;;;;4.88;2.28;;;9.30;99.90;;;;;;4801441;29;20041;-79
2024/03/31 02:00:34;;;;;;;5.70;2.90;;;9.30;99.90;;;;;;4831256;29;20056;-79
2024/03/31 02:03:00;;;;;;;5.35;2.30;;;9.30;99.90;;;;;;4816028;29;20045;-79
2024/03/31 02:05:26;;;;;;;5.43;2.38;;;9.30;99.90;;;;;;4831382;29;20060;-79
2024/03/31 02:07:52;;;;;;;4.70;2.53;;;9.20;99.90;;;;;;4830788;29;20081;-80
2024/03/31 02:10:18;;;;;;;5.18;2.30;;;9.20;99.90;;;;;;4800986;29;20073;-79
2024/03/31 02:12:44;;;;;;;4.25;2.15;;;9.20;99.90;;;;;;4801191;29;20080;-79
2024/03/31 02:15:11;;;;;;;3.70;1.92;;;9.20;99.90;;;;;;4830867;29;20077;-79
2024/03/31 02:17:37;;;;;;;3.80;1.92;;;9.10;99.90;;;;;;4815743;29;20072;-79
2024/03/31 02:20:05;;;;;;;3.60;1.50;;;9.10;99.90;;;;;;4815774;29;20045;-79
2024/03/31 02:22:31;;;;;;;4.75;1.70;;;9.10;99.90;;;;;;4816014;29;20053;-79
2024/03/31 02:24:57;;;;;;;2.53;1.35;;;9.10;99.90;;;;;;4830647;29;20490;-78
2024/03/31 02:27:23;;;;;;;4.03;1.80;;;9.10;99.90;;;;;;4815476;29;20045;-79
2024/03/31 02:29:49;;;;;;;2.95;1.00;;;9.10;99.90;;;;;;4815568;29;20049;-79
2024/03/31 02:32:15;;;;;;;3.38;1.40;;;9.10;99.90;;;;;;4814870;29;20046;-79
2024/03/31 02:34:41;;;;;;;3.22;1.38;;;9.00;99.90;;;;;;4823658;29;20105;-79
2024/03/31 02:37:07;;;;;;;2.50;1.13;;;9.10;99.90;;;;;;4815195;29;20034;-79
2024/03/31 02:39:34;;;;;;;3.33;1.30;;;9.10;99.90;;;;;;4815297;29;20062;-79
2024/03/31 02:42:00;;;;;;;2.70;1.42;;;9.10;99.90;;;;;;4815140;29;20502;-79
2024/03/31 02:44:26;;;;;;;2.20;0.80;;;9.10;99.90;;;;;;4800413;29;20057;-79
2024/03/31 02:46:52;;;;;;;2.78;1.42;;;9.10;99.90;;;;;;4815316;29;20388;-79
2024/03/31 02:49:18;;;;;;;2.33;0.90;;;9.10;99.90;;;;;;4830190;29;20041;-79
2024/03/31 02:51:44;;;;;;;2.78;1.02;;;9.10;99.90;;;;;;4815076;29;20053;-80
2024/03/31 02:54:10;;;;;;;2.80;1.20;;;9.10;99.90;;;;;;4845013;29;20057;-79
2024/03/31 02:56:37;;;;;;;2.03;1.10;;;9.10;99.90;;;;;;4815376;29;20046;-79
2024/03/31 02:59:03;;;;;;;2.45;1.00;;;9.10;99.90;;;;;;4829862;29;20052;-79
2024/03/31 03:01:31;;;;;;;2.28;1.10;;;9.20;99.90;;;;;;4815640;29;20140;-79
2024/03/31 03:03:57;;;;;;;2.53;1.15;;;9.20;99.90;;;;;;4840560;29;20414;-79
2024/03/31 03:06:23;;;;;;;1.83;0.85;;;9.20;99.90;;;;;;4814900;29;20042;-79
2024/03/31 03:08:49;;;;;;;2.20;0.90;;;9.20;99.90;;;;;;4829742;29;20061;-79
2024/03/31 03:11:17;;;;;;;2.53;0.95;;;9.20;99.90;;;;;;4844718;29;20041;-79
2024/03/31 03:13:44;;;;;;;2.90;1.23;;;9.20;99.90;;;;;;4814759;29;20091;-79
2024/03/31 03:16:11;;;;;;;1.98;1.00;;;9.20;99.90;;;;;;4830210;29;20057;-79
2024/03/31 03:18:37;;;;;;;2.90;1.20;;;9.20;99.90;;;;;;4814490;29;20510;-79
2024/03/31 03:21:03;;;;;;;2.58;1.05;;;9.20;99.90;;;;;;4844939;29;20038;-79
2024/03/31 03:23:31;;;;;;;2.92;1.40;;;9.10;99.90;;;;;;4829758;29;20049;-79
2024/03/31 03:25:58;;;;;;;2.60;1.23;;;9.10;99.90;;;;;;4785107;29;20136;-78
2024/03/31 03:28:25;;;;;;;2.30;1.00;;;9.00;99.90;;;;;;4814649;29;20049;-78
2024/03/31 03:30:51;;;;;;;2.05;1.00;;;9.00;99.90;;;;;;4829703;29;20087;-79
2024/03/31 03:33:20;;;;;;;2.92;1.30;;;9.00;99.90;;;;;;4800886;29;20045;-79
2024/03/31 03:35:51;;;;;;;4.70;1.83;;;8.90;99.90;;;;;;4828208;29;20132;-79
2024/03/31 03:38:18;;;;;;;2.65;1.17;;;8.90;99.90;;;;;;4814542;29;20056;-79
2024/03/31 03:40:45;;;;;;;2.50;1.63;;;8.80;99.90;;;;;;4814988;29;20083;-79
2024/03/31 03:43:13;;;;;;;3.08;1.60;;;8.90;99.90;;;;;;4814770;29;20053;-79
2024/03/31 03:45:43;;;;;;;2.83;1.80;;;8.80;99.90;;;;;;4815859;29;20040;-79
2024/03/31 03:48:09;;;;;;;2.63;1.20;;;8.80;99.90;;;;;;4814671;29;20054;-79
2024/03/31 03:50:36;;;;;;;2.72;1.35;;;8.80;99.90;;;;;;4814327;29;20140;-79
2024/03/31 03:53:05;;;;;;;4.20;1.92;;;8.80;99.90;;;;;;4829559;29;20042;-79
2024/03/31 03:55:31;;;;;;;2.22;1.15;;;8.70;99.90;;;;;;4829429;29;20049;-79
2024/03/31 03:57:57;;;;;;;2.90;1.45;;;8.80;99.90;;;;;;4814111;29;20506;-79
2024/03/31 04:00:24;;;;;;;2.28;1.20;;;8.70;99.90;;;;;;4814088;29;20050;-79
2024/03/31 04:02:50;;;;;;;2.58;1.33;;;8.70;99.90;;;;;;4844276;29;20041;-79
2024/03/31 04:05:17;;;;;;;3.03;1.75;;;8.70;99.90;;;;;;4829264;29;20045;-79
2024/03/31 04:07:46;;;;;;;3.30;1.50;;;8.70;99.90;;;;;;4828980;29;20052;-79
2024/03/31 04:10:13;;;;;;;2.38;1.08;;;8.70;99.90;;;;;;4813986;29;20052;-79
2024/03/31 04:12:39;;;;;;;3.05;1.40;;;8.70;99.90;;;;;;4813963;29;20041;-79
2024/03/31 04:15:05;;;;;;;3.00;1.45;;;8.70;99.90;;;;;;4814026;29;20053;-79
2024/03/31 04:17:34;;;;;;;3.50;1.70;;;8.70;99.90;;;;;;4813955;29;20510;-79
2024/03/31 04:20:01;;;;;;;3.03;1.55;;;8.80;99.90;;;;;;4814814;29;20046;-79
2024/03/31 04:22:27;;;;;;;3.38;1.80;;;8.80;99.90;;;;;;4813954;29;20042;-79
2024/03/31 04:24:54;;;;;;;3.60;1.50;;;8.90;99.90;;;;;;4844009;29;20410;-79
2024/03/31 04:27:20;;;;;;;5.10;2.22;;;8.90;99.90;;;;;;4814143;29;20549;-79
2024/03/31 04:29:46;;;;;;;4.40;1.75;;;8.90;99.90;;;;;;4813870;29;20050;-79
2024/03/31 04:32:12;;;;;;;3.08;1.77;;;8.90;99.90;;;;;;4813919;29;20062;-79
2024/03/31 04:34:38;;;;;;;3.17;1.95;;;8.90;99.90;;;;;;4813818;29;20525;-79
2024/03/31 04:37:05;;;;;;;3.78;1.90;;;8.90;99.90;;;;;;4813992;29;20056;-79
2024/03/31 04:39:31;;;;;;;3.97;2.05;;;9.00;99.90;;;;;;4843704;29;20049;-79
2024/03/31 04:41:57;;;;;;;3.85;2.15;;;9.00;99.90;;;;;;4827172;29;20459;-79
2024/03/31 04:44:23;;;;;;;3.13;1.52;;;9.00;99.90;;;;;;4815412;29;20558;-79
2024/03/31 04:46:50;;;;;;;2.90;1.70;;;9.00;99.90;;;;;;4844124;29;20545;-79
2024/03/31 04:49:18;;;;;;;3.65;2.30;;;9.00;99.90;;;;;;4844305;29;20050;-79
2024/03/31 04:51:49;;;;;;;5.72;2.63;;;9.00;99.90;;;;;;4814281;29;20327;-79
2024/03/31 04:54:19;;;;;;;3.95;2.20;;;9.00;99.90;;;;;;4841810;29;20080;-79
2024/03/31 04:56:49;;;;;;;3.67;2.00;;;9.00;99.90;;;;;;4813581;29;20050;-78
2024/03/31 04:59:20;;;;;;;5.60;3.33;;;9.00;99.90;;;;;;4833303;29;20049;-79
2024/03/31 05:01:46;;;;;;;4.68;2.90;;;8.90;99.90;;;;;;4802340;29;20537;-79
2024/03/31 05:04:12;;;;;;;6.03;3.42;;;8.90;99.90;;;;;;4801943;29;20141;-79
2024/03/31 05:06:40;;;;;;;4.80;2.67;;;8.90;99.90;;;;;;4802337;29;20042;-79
2024/03/31 05:09:06;;;;;;;4.03;2.42;;;8.80;99.90;;;;;;4816628;29;20090;-79
2024/03/31 05:11:32;;;;;;;4.47;2.63;;;8.90;99.90;;;;;;4817002;29;20117;-79
2024/03/31 05:13:59;;;;;;;3.95;2.58;;;8.90;99.90;;;;;;4802203;29;20418;-79
2024/03/31 05:16:27;;;;;;;4.75;3.15;;;8.90;99.90;;;;;;4819958;29;20046;-78
2024/03/31 05:18:54;;;;;;;5.78;3.30;;;8.90;99.90;;;;;;4818064;29;20128;-79
2024/03/31 05:21:20;;;;;;;4.45;2.90;;;8.90;99.90;;;;;;4809936;29;20077;-79
2024/03/31 05:23:46;;;;;;;4.97;3.00;;;8.90;99.90;;;;;;4862252;29;20045;-79
2024/03/31 05:26:29;;;;;;;5.07;2.80;;;8.90;99.90;;;;;;4837038;29;20048;-79
2024/03/31 05:28:55;;;;;;;6.10;3.17;;;8.80;99.90;;;;;;4849227;29;20498;-79
2024/03/31 05:31:22;;;;;;;5.82;3.45;;;8.80;99.90;;;;;;4801647;29;20054;-79
2024/03/31 05:33:58;;;;;;;5.68;3.50;;;8.80;99.90;;;;;;4818741;29;20042;-78
2024/03/31 05:36:24;;;;;;;5.70;3.55;;;8.80;99.90;;;;;;4831989;29;20045;-78
2024/03/31 05:38:50;;;;;;;6.50;3.78;;;8.80;99.90;;;;;;4816747;29;20094;-79
2024/03/31 05:41:19;;;;;;;5.97;3.80;;;8.80;99.90;;;;;;4847206;29;20053;-79
2024/03/31 05:43:46;;;;;;;5.07;3.05;;;8.70;99.90;;;;;;4816557;29;20107;-79
2024/03/31 05:46:12;;;;;;;5.22;3.03;;;8.70;99.90;;;;;;4831426;29;20128;-79
2024/03/31 05:48:38;;;;;;;5.00;3.00;;;8.70;99.90;;;;;;4826545;29;20505;-79
2024/03/31 05:51:04;;;;;;;5.40;3.28;;;8.80;99.90;;;;;;4801263;29;20049;-79
2024/03/31 05:53:33;;;;;;;6.95;3.30;;;8.80;99.90;;;;;;4816858;29;20144;-79
2024/03/31 05:55:59;;;;;;;5.45;3.55;;;8.80;99.90;;;;;;4816238;29;20132;-79
2024/03/31 05:58:25;;;;;;;5.18;2.88;;;8.70;99.90;;;;;;4801288;29;20072;-79
2024/03/31 06:00:51;;;;;;;6.65;4.13;;;8.80;99.90;;;;;;4800930;29;20506;-79
2024/03/31 06:03:23;;;;;;;6.70;4.30;;;8.80;99.90;;;;;;4819884;29;20061;-79
2024/03/31 06:05:50;;;;;;;5.93;3.72;;;8.80;99.90;;;;;;4819611;29;20137;-79
2024/03/31 06:08:16;;;;;;;5.90;3.30;;;8.80;99.90;;;;;;4800375;29;20136;-79
2024/03/31 06:10:42;;;;;;;5.82;3.60;;;8.80;99.90;;;;;;4807165;29;20056;-79
2024/03/31 06:13:08;;;;;;;5.90;3.72;;;8.90;99.90;;;;;;4828495;29;20053;-83
2024/03/31 06:15:34;;;;;;;6.97;4.75;;;8.90;99.90;;;;;;4816843;29;20052;-83
2024/03/31 06:18:00;;;;;;;6.95;4.28;;;8.90;99.90;;;;;;4815859;29;20494;-83
2024/03/31 06:20:26;;;;;;;6.88;4.07;;;9.00;99.90;;;;;;4815847;29;20400;-83
2024/03/31 06:22:53;;;;;;;6.18;3.67;;;9.00;99.90;;;;;;4833309;29;20061;-83
2024/03/31 06:25:19;;;;;;;4.03;2.58;;;9.00;99.90;;;;;;4832530;29;20045;-83
2024/03/31 06:27:45;;;;;;;5.25;2.97;;;9.10;99.90;;;;;;4846706;29;20586;-82
2024/03/31 06:30:11;;;;;;;6.60;4.18;;;9.10;99.90;;;;;;4815479;29;20046;-83
2024/03/31 06:32:37;;;;;;;5.68;3.70;;;9.10;99.90;;;;;;4830952;29;20045;-85
2024/03/31 06:35:04;;;;;;;8.90;4.10;;;9.20;99.90;;;;;;4830716;29;20053;-83
2024/03/31 06:37:30;;;;;;;5.70;3.75;;;9.20;99.90;;;;;;4815866;29;20042;-83
2024/03/31 06:39:58;;;;;;;7.95;4.05;;;9.30;99.90;;;;;;4815701;29;20570;-84
2024/03/31 06:42:25;;;;;;;6.70;4.65;;;9.30;99.90;;;;;;4830926;29;20278;-83
2024/03/31 06:44:53;;;;;;;6.75;4.45;;;9.30;99.90;;;;;;4816186;29;20410;-83
2024/03/31 06:47:19;;;;;;;8.02;4.95;;;9.30;99.90;;;;;;4830415;29;20049;-83
2024/03/31 06:49:45;;;;;;;8.45;5.50;;;9.30;99.90;;;;;;4803259;29;20049;-83
2024/03/31 06:52:11;;;;;;;7.63;5.03;;;9.40;99.90;;;;;;4834072;29;20057;-83
2024/03/31 06:54:37;;;;;;;7.43;4.30;;;9.40;99.90;;;;;;4815411;29;20069;-83
2024/03/31 06:57:06;;;;;;;9.50;4.88;;;9.50;99.90;;;;;;4816082;29;20053;-83
2024/03/31 06:59:32;;;;;;;7.25;4.53;;;9.60;99.90;;;;;;4800560;29;20066;-83
2024/03/31 07:01:58;;;;;;;7.30;4.57;;;9.60;99.90;;;;;;4814899;29;20073;-83
2024/03/31 07:04:24;;;;;;;7.88;5.03;;;9.60;99.90;;;;;;4833509;29;20432;-84
2024/03/31 07:06:51;;;;;;;6.75;4.15;;;9.60;99.90;;;;;;4832162;29;20049;-83
2024/03/31 07:09:18;;;;;;;7.45;5.53;;;9.60;99.90;;;;;;4806523;29;20081;-84
2024/03/31 07:11:44;;;;;;;7.72;5.20;;;9.60;99.90;;;;;;4775718;29;20150;-83
2024/03/31 07:14:11;;;;;;;7.97;4.88;;;9.70;99.90;;;;;;4793098;29;20050;-83
2024/03/31 07:16:39;;;;;;;8.43;4.38;;;9.70;99.90;;;;;;4786646;29;20457;-83
2024/03/31 07:19:05;;;;;;;8.27;5.10;;;9.70;99.90;;;;;;4793067;29;20572;-83
2024/03/31 07:21:33;;;;;;;7.40;5.00;;;9.70;99.90;;;;;;4786363;29;20047;-83
2024/03/31 07:23:59;;;;;;;8.07;4.93;;;9.80;99.90;;;;;;4805632;29;20047;-83
2024/03/31 07:26:26;;;;;;;7.65;4.90;;;9.80;99.90;;;;;;4780247;29;20137;-83
2024/03/31 07:28:54;;;;;;;6.45;4.10;;;9.80;99.90;;;;;;4793220;29;20074;-84
2024/03/31 07:31:22;;;;;;;6.97;4.35;;;9.90;99.90;;;;;;4792564;29;20082;-83
2024/03/31 07:33:49;;;;;;;9.25;5.40;;;9.90;99.90;;;;;;4807461;29;20051;-83
2024/03/31 07:36:15;;;;;;;8.07;5.57;;;10.00;99.90;;;;;;4813245;29;20066;-83
2024/03/31 07:38:41;;;;;;;8.80;5.22;;;10.00;99.90;;;;;;4796099;29;20055;-83
2024/03/31 07:41:07;;;;;;;8.25;4.97;;;10.10;99.90;;;;;;4834269;29;20056;-83
2024/03/31 07:43:33;;;;;;;7.93;6.03;;;10.10;99.90;;;;;;4828370;29;20046;-82
2024/03/31 07:45:59;;;;;;;8.57;6.28;;;10.20;99.90;;;;;;4848393;29;20040;-82
2024/03/31 07:48:25;;;;;;;7.93;5.57;;;10.20;99.90;;;;;;4860023;29;20450;-82
2024/03/31 07:50:51;;;;;;;10.75;6.00;;;10.20;99.90;;;;;;4824726;29;20045;-82
2024/03/31 07:53:17;;;;;;;8.00;6.03;;;10.30;99.90;;;;;;4792406;29;20061;-82
2024/03/31 07:55:43;;;;;;;7.95;5.85;;;10.40;99.90;;;;;;4829240;29;20064;-82
2024/03/31 07:58:09;;;;;;;7.15;4.90;;;10.50;99.90;;;;;;4829405;29;20049;-82
2024/03/31 08:00:35;;;;;;;7.70;6.07;;;10.60;99.90;;;;;;4844274;29;20101;-82
2024/03/31 08:03:01;;;;;;;8.68;5.72;;;10.70;99.90;;;;;;4829401;29;20044;-83
2024/03/31 08:05:27;;;;;;;7.53;5.28;;;10.70;99.90;;;;;;4814123;29;20056;-87
2024/03/31 08:07:54;;;;;;;6.70;4.93;;;10.70;99.90;;;;;;4811266;29;20054;-82
2024/03/31 08:10:20;;;;;;;10.40;7.35;;;10.70;99.90;;;;;;4781244;29;20392;-83
2024/03/31 08:12:46;;;;;;;8.68;5.50;;;10.70;99.90;;;;;;4826214;29;20136;-88
2024/03/31 08:15:12;;;;;;;8.77;5.25;;;10.70;99.90;;;;;;4772536;29;20038;-83
2024/03/31 08:17:38;;;;;;;8.38;5.40;;;10.70;99.90;;;;;;4810898;29;20069;-82
2024/03/31 08:20:05;;;;;;;8.18;4.55;;;10.80;99.90;;;;;;4795714;29;20501;-82
2024/03/31 08:22:31;;;;;;;6.65;4.05;;;11.00;99.90;;;;;;4795934;29;20050;-82
2024/03/31 08:24:56;;;;;;;6.82;4.55;;;11.10;99.90;;;;;;4811261;29;20057;-82
2024/03/31 08:27:22;;;;;;;6.03;3.95;;;11.30;99.90;;;;;;4814315;29;20057;-82
2024/03/31 08:30:01;;;;;;;7.82;5.07;;;11.40;99.90;;;;;;5091629;27;1499259;-81
2024/03/31 08:32:27;;;;;;;8.38;5.25;;;11.50;99.90;;;;;;5079548;28;20073;-81
2024/03/31 08:34:53;;;;;;;8.98;5.28;;;11.50;99.90;;;;;;5061586;28;20130;-81
2024/03/31 08:37:19;;;;;;;6.97;4.57;;;11.50;99.90;;;;;;5074795;28;20036;-86
2024/03/31 08:39:46;;;;;;;7.00;4.70;;;11.50;99.90;;;;;;5052520;28;20560;-81
2024/03/31 08:42:18;;;;;;;7.25;4.63;;;11.50;99.90;;;;;;5086526;28;20051;-82
2024/03/31 08:44:45;;;;;;;8.43;4.60;;;11.60;99.90;;;;;;5085352;28;20048;-82
2024/03/31 08:47:17;;;;;;;6.15;4.00;;;11.50;99.90;;;;;;5098736;28;20051;-82
2024/03/31 08:49:44;;;;;;;5.82;3.17;;;11.60;99.90;;;;;;5087112;28;20044;-87
2024/03/31 08:52:10;;;;;;;6.95;3.97;;;11.60;99.90;;;;;;5064115;28;20033;-87
2024/03/31 08:54:38;;;;;;;6.90;4.18;;;11.80;99.90;;;;;;5084911;28;20047;-87
2024/03/31 08:57:04;;;;;;;6.07;3.92;;;12.00;99.90;;;;;;5073998;28;20051;-86
2024/03/31 08:59:30;;;;;;;7.60;4.53;;;12.20;99.90;;;;;;5089624;28;20052;-87
2024/03/31 09:01:58;;;;;;;6.57;4.05;;;12.20;99.90;;;;;;5051862;28;20192;-87
2024/03/31 09:04:24;;;;;;;8.02;4.38;;;12.30;99.90;;;;;;5089606;28;20082;-86
2024/03/31 09:06:51;;;;;;;7.90;4.80;;;12.40;99.90;;;;;;5103007;28;20035;-86
2024/03/31 09:09:24;;;;;;;6.50;4.45;;;12.50;99.90;;;;;;5073131;28;20046;-87
2024/03/31 09:11:50;;;;;;;7.38;4.00;;;12.50;99.90;;;;;;5055963;28;20053;-87
2024/03/31 09:14:18;;;;;;;6.15;4.28;;;12.50;99.90;;;;;;5089388;28;20043;-87
2024/03/31 09:16:48;;;;;;;9.82;4.95;;;12.50;99.90;;;;;;5047737;28;20066;-87
2024/03/31 09:19:14;;;;;;;5.85;3.67;;;12.50;99.90;;;;;;5050462;28;20045;-87
2024/03/31 09:21:47;;;;;;;6.50;3.63;;;12.50;99.90;;;;;;5055666;28;20040;-87
2024/03/31 09:24:18;;;;;;;5.97;4.30;;;12.60;99.90;;;;;;5052350;28;20068;-87
2024/03/31 09:26:45;;;;;;;6.67;4.43;;;12.70;99.90;;;;;;5040259;28;20055;-86
2024/03/31 09:29:12;;;;;;;7.25;4.70;;;12.80;99.90;;;;;;5068329;28;20064;-84
2024/03/31 09:31:38;;;;;;;10.85;5.95;;;12.90;99.90;;;;;;5044170;28;20048;-83
2024/03/31 09:34:04;;;;;;;7.97;4.70;;;12.90;99.90;;;;;;5064471;28;20079;-83
2024/03/31 09:36:30;;;;;;;8.85;5.72;;;12.90;99.90;;;;;;5071399;28;20044;-82
2024/03/31 09:38:56;;;;;;;8.82;5.85;;;13.00;99.90;;;;;;5056517;28;20032;-82
2024/03/31 09:41:22;;;;;;;8.80;5.10;;;13.00;99.90;;;;;;5067665;28;20495;-81
2024/03/31 09:43:49;;;;;;;7.25;5.07;;;13.10;99.90;;;;;;5042173;28;20052;-89
2024/03/31 09:46:15;;;;;;;7.85;5.15;;;13.30;99.90;;;;;;5042408;28;20070;-89
2024/03/31 09:48:52;;;;;;;7.55;4.85;;;13.40;99.90;;;;;;5049480;28;20048;-90
2024/03/31 09:51:22;;;;;;;7.78;4.18;;;13.70;99.90;;;;;;5050623;28;20048;-89
2024/03/31 09:54:01;;;;;;;6.95;4.22;;;13.80;99.90;;;;;;5077568;28;20059;-90
2024/03/31 09:56:40;;;;;;;6.50;4.13;;;14.10;99.90;;;;;;5046254;28;20135;-90
2024/03/31 09:59:10;;;;;;;8.55;4.70;;;14.20;99.90;;;;;;5050450;28;20048;-89
2024/03/31 10:01:39;;;;;;;7.90;4.72;;;14.30;99.90;;;;;;5069498;28;20044;-90
2024/03/31 10:04:15;;;;;;;6.93;4.18;;;14.40;99.90;;;;;;5063226;28;20052;-87
2024/03/31 10:06:42;;;;;;;9.38;5.43;;;14.50;99.90;;;;;;5067934;28;20041;-87
2024/03/31 10:09:09;;;;;;;8.43;4.70;;;14.50;99.90;;;;;;5053281;28;20044;-88
2024/03/31 10:11:35;;;;;;;7.57;4.90;;;14.50;99.90;;;;;;5033068;28;20053;-87
2024/03/31 10:14:04;;;;;;;8.38;5.60;;;14.50;99.90;;;;;;5055999;28;20063;-88
2024/03/31 10:16:32;;;;;;;6.50;4.70;;;14.50;99.90;;;;;;5034264;28;20426;-87
2024/03/31 10:18:58;;;;;;;8.68;4.60;;;14.70;99.90;;;;;;5062390;28;20048;-89
2024/03/31 10:21:25;;;;;;;7.72;4.40;;;14.80;99.90;;;;;;5061964;28;20047;-89
2024/03/31 10:23:55;;;;;;;10.75;4.45;;;15.10;99.90;;;;;;5038219;28;20052;-90
2024/03/31 10:26:22;;;;;;;9.73;4.57;;;15.40;99.70;;;;;;5060123;28;20048;-89
2024/03/31 10:28:50;;;;;;;6.10;4.15;;;15.40;99.30;;;;;;5042156;28;20052;-90
2024/03/31 10:31:17;;;;;;;7.03;3.97;;;15.40;99.30;;;;;;5075800;28;20407;-91
2024/03/31 10:33:43;;;;;;;5.50;3.28;;;15.30;99.40;;;;;;5061314;28;20037;-91
2024/03/31 10:36:11;;;;;;;8.80;4.75;;;15.30;99.50;;;;;;5045544;28;20044;-90
2024/03/31 10:38:45;;;;;;;8.15;4.85;;;15.50;99.40;;;;;;5062487;28;20067;-90
2024/03/31 10:41:11;;;;;;;6.88;4.00;;;15.50;99.10;;;;;;5049718;28;20089;-89
2024/03/31 10:43:39;;;;;;;6.32;3.75;;;15.40;99.20;;;;;;5046215;28;20048;-88
2024/03/31 10:46:07;;;;;;;5.47;3.60;;;15.30;99.20;;;;;;5037381;28;20045;-88
2024/03/31 10:48:35;;;;;;;6.28;3.25;;;15.30;99.30;;;;;;5051544;28;20053;-89
2024/03/31 10:51:15;;;;;;;7.32;3.47;;;15.30;99.30;;;;;;5057940;28;20046;-88
2024/03/31 10:53:41;;;;;;;4.70;3.28;;;15.40;99.30;;;;;;5044436;28;20044;-89
2024/03/31 10:56:08;;;;;;;5.78;3.30;;;15.50;99.20;;;;;;5037427;28;20044;-86
2024/03/31 10:58:37;;;;;;;5.07;2.78;;;15.60;99.10;;;;;;5017503;28;20408;-88
2024/03/31 11:01:03;;;;;;;7.30;2.60;;;15.60;99.00;;;;;;5041205;28;20043;-89
2024/03/31 11:03:33;;;;;;;6.05;2.83;;;15.50;99.00;;;;;;5045509;28;20101;-88
2024/03/31 11:06:03;;;;;;;5.25;2.33;;;15.50;99.20;;;;;;5024389;28;20041;-90
2024/03/31 11:08:29;;;;;;;4.80;2.22;;;15.50;99.10;;;;;;5053712;28;20036;-90
2024/03/31 11:10:56;;;;;;;5.45;2.90;;;15.50;99.10;;;;;;5045107;28;20102;-88
2024/03/31 11:13:27;;;;;;;5.53;3.10;;;15.50;99.10;;;;;;5060602;28;20052;-89
2024/03/31 11:15:55;;;;;;;5.90;2.90;;;15.50;99.10;;;;;;5075594;28;20479;-86
2024/03/31 11:18:22;;;;;;;6.25;2.78;;;15.60;99.20;;;;;;5049937;28;20049;-93
2024/03/31 11:20:48;;;;;;;5.13;2.42;;;15.60;99.10;;;;;;5023374;28;20036;-86
2024/03/31 11:23:14;;;;;;;4.15;1.98;;;15.70;99.10;;;;;;5043547;28;20079;-87
2024/03/31 11:25:42;;;;;;;4.40;1.85;;;15.90;98.90;;;;;;5028906;28;20062;-87
2024/03/31 11:28:13;;;;;;;5.50;2.22;;;16.10;98.60;;;;;;5051997;28;20040;-87
2024/03/31 11:30:43;;;;;;;4.70;2.38;;;16.30;98.30;;;;;;5045783;28;20075;-88
2024/03/31 11:33:09;;;;;;;6.28;2.05;;;16.40;98.00;;;;;;5040962;28;20090;-88
2024/03/31 11:35:36;;;;;;;5.72;1.83;;;16.30;98.00;;;;;;5043198;28;20078;-87
2024/03/31 11:38:16;;;;;;;3.33;1.92;;;16.20;98.20;;;;;;5033982;28;20455;-88
2024/03/31 11:40:42;;;;;;;4.07;1.70;;;16.10;98.20;;;;;;5054802;28;20049;-87
2024/03/31 11:43:09;;;;;;;5.32;2.20;;;15.90;98.40;;;;;;5050523;28;20040;-90
2024/03/31 11:45:36;;;;;;;4.72;1.90;;;15.90;98.40;;;;;;5022691;28;20051;-88
2024/03/31 11:48:03;;;;;;;3.58;1.38;;;16.00;98.60;;;;;;5039855;28;20036;-89
2024/03/31 11:50:31;;;;;;;3.58;1.42;;;16.00;98.20;;;;;;5040190;28;20040;-89
2024/03/31 11:52:57;;;;;;;4.05;1.35;;;16.10;98.10;;;;;;5048357;28;20040;-87
2024/03/31 11:55:23;;;;;;;4.22;1.20;;;16.20;98.00;;;;;;5041716;28;20093;-87
2024/03/31 11:57:49;;;;;;;2.50;1.10;;;16.40;97.70;;;;;;5039785;28;20751;-88
2024/03/31 12:00:15;;;;;;;4.72;1.70;;;16.60;97.40;;;;;;5056015;28;20105;-88
2024/03/31 12:02:42;;;;;;;3.88;1.38;;;16.70;97.10;;;;;;5069190;28;20058;-88
2024/03/31 12:05:20;;;;;;;7.53;1.48;;;16.80;96.90;;;;;;5022758;28;20549;-86
2024/03/31 12:07:47;;;;;;;4.40;1.27;;;16.90;96.90;;;;;;5057184;28;20384;-85
2024/03/31 12:10:15;;;;;;;3.80;1.20;;;16.80;96.90;;;;;;5028955;28;20033;-86
2024/03/31 12:12:41;;;;;;;3.13;1.42;;;16.90;96.90;;;;;;5038502;28;20051;-86
2024/03/31 12:15:09;;;;;;;2.70;1.05;;;16.90;96.80;;;;;;5052249;28;20139;-87
2024/03/31 12:17:35;;;;;;;3.08;0.80;;;17.00;96.60;;;;;;5027665;28;20052;-88
2024/03/31 12:20:08;;;;;;;3.28;0.95;;;17.00;96.30;;;;;;5039067;28;20511;-87
2024/03/31 12:22:36;;;;;;;4.40;0.80;;;17.20;96.10;;;;;;5064113;28;20050;-88
2024/03/31 12:25:04;;;;;;;2.55;0.90;;;17.30;95.90;;;;;;5044555;28;20056;-87
2024/03/31 12:27:31;;;;;;;3.47;0.88;;;17.40;95.60;;;;;;5055914;28;20046;-86
2024/03/31 12:29:59;;;;;;;2.38;0.65;;;17.50;95.40;;;;;;5056065;28;20091;-89
2024/03/31 12:32:26;;;;;;;1.58;0.70;;;17.60;95.30;;;;;;5041686;28;20040;-86
2024/03/31 12:34:52;;;;;;;3.00;0.75;;;17.60;95.20;;;;;;5037742;28;20501;-86
2024/03/31 12:37:18;;;;;;;3.17;0.80;;;17.60;95.20;;;;;;5039560;28;20503;-86
2024/03/31 12:39:44;;;;;;;2.70;0.60;;;17.70;95.20;;;;;;5082968;28;20040;-86
2024/03/31 12:42:14;;;;;;;3.15;0.60;;;17.60;95.10;;;;;;5038521;28;20044;-85
2024/03/31 12:44:40;;;;;;;2.90;0.68;;;17.60;95.00;;;;;;5071949;28;20041;-85
2024/03/31 12:47:07;;;;;;;3.42;0.50;;;17.50;95.10;;;;;;5062045;28;20051;-86
2024/03/31 12:49:33;;;;;;;2.47;0.57;;;17.30;95.10;;;;;;5066654;28;20536;-86
2024/03/31 12:52:05;;;;;;;3.10;0.90;;;17.20;95.10;;;;;;5060900;28;20032;-85